Time;durP1;ratioP1;P1;durP2;ratioP2;P2;SDS_P1;SDS_P2;PMS_P1;PMS_P2;Temp;Humidity;BMP_temperature;BMP_pressure;BME280_temperature;BME280_humidity;BME280_pressure;Samples;Min_cycle;Max_cycle;Signal;HPM_P1;HPM_P2
2023/04/10 00:01:09;;;;;;;;;;;20.80;43.70;;;;;;1537720;75;800;-59
2023/04/10 00:03:11;;;;;;;;;;;20.80;43.80;;;;;;1541278;75;1540;-59
2023/04/10 00:05:13;;;;;;;;;;;20.80;43.90;;;;;;1533828;75;1183;-59
2023/04/10 00:07:15;;;;;;;;;;;20.80;43.90;;;;;;1545021;75;708;-59
2023/04/10 00:09:17;;;;;;;;;;;20.80;43.90;;;;;;1542048;75;636;-59
2023/04/10 00:11:19;;;;;;;;;;;20.80;43.80;;;;;;1545143;75;708;-59
2023/04/10 00:13:21;;;;;;;;;;;20.80;43.80;;;;;;1542656;76;1110;-59
2023/04/10 00:15:23;;;;;;;;;;;20.80;44.10;;;;;;1540330;75;687;-59
2023/04/10 00:17:25;;;;;;;;;;;20.80;44.10;;;;;;1533289;75;1936;-58
2023/04/10 00:19:27;;;;;;;;;;;20.80;44.00;;;;;;1540604;75;733;-59
2023/04/10 00:21:30;;;;;;;;;;;20.80;44.10;;;;;;1541872;75;799;-58
2023/04/10 00:23:33;;;;;;;;;;;20.80;44.00;;;;;;1544190;75;1106;-58
2023/04/10 00:25:35;;;;;;;;;;;20.80;44.00;;;;;;1541016;75;665;-59
2023/04/10 00:27:37;;;;;;;;;;;20.80;44.00;;;;;;1548539;75;638;-59
2023/04/10 00:29:39;;;;;;;;;;;20.70;44.10;;;;;;1544788;75;704;-58
2023/04/10 00:31:41;;;;;;;;;;;20.70;44.00;;;;;;1539039;75;1561;-59
2023/04/10 00:33:43;;;;;;;;;;;20.70;44.20;;;;;;1540631;75;1133;-58
2023/04/10 00:35:45;;;;;;;;;;;20.70;44.20;;;;;;1530894;75;654;-59
2023/04/10 00:37:48;;;;;;;;;;;20.70;44.20;;;;;;1537926;75;1902;-59
2023/04/10 00:39:50;;;;;;;;;;;20.70;44.10;;;;;;1547443;75;758;-58
2023/04/10 00:41:52;;;;;;;;;;;20.70;44.20;;;;;;1545384;75;728;-59
2023/04/10 00:43:57;;;;;;;;;;;20.70;44.20;;;;;;1547137;75;1148;-58
2023/04/10 00:45:59;;;;;;;;;;;20.70;44.40;;;;;;1547201;75;1333;-59
2023/04/10 00:48:01;;;;;;;;;;;20.70;44.30;;;;;;1551311;75;723;-57
2023/04/10 00:50:03;;;;;;;;;;;20.80;44.30;;;;;;1533498;75;803;-57
2023/04/10 00:52:05;;;;;;;;;;;20.80;44.30;;;;;;1560251;75;756;-58
2023/04/10 00:54:09;;;;;;;;;;;20.80;44.30;;;;;;1541251;75;1267;-58
2023/04/10 00:56:11;;;;;;;;;;;20.90;44.20;;;;;;1538910;75;1932;-58
2023/04/10 00:58:13;;;;;;;;;;;20.80;44.10;;;;;;1540233;75;1109;-58
2023/04/10 01:00:16;;;;;;;;;;;20.80;44.40;;;;;;1547702;74;1404;-58
2023/04/10 01:02:18;;;;;;;;;;;20.70;44.40;;;;;;1556164;75;752;-58
2023/04/10 01:04:21;;;;;;;;;;;20.80;44.40;;;;;;1554972;75;1189;-58
2023/04/10 01:06:36;;;;;;;;;;;20.80;44.40;;;;;;1554329;75;704;-58
2023/04/10 01:08:56;;;;;;;;;;;20.70;44.50;;;;;;1554499;74;1549;-60
2023/04/10 01:11:02;;;;;;;;;;;20.70;44.60;;;;;;1556394;75;661;-60
2023/04/10 01:13:09;;;;;;;;;;;20.90;44.80;;;;;;1552533;75;1575;-60
2023/04/10 01:15:11;;;;;;;;;;;20.60;44.60;;;;;;1547971;74;1118;-61
2023/04/10 01:17:15;;;;;;;;;;;20.70;44.90;;;;;;1546756;74;1952;-60
2023/04/10 01:19:27;;;;;;;;;;;20.70;44.80;;;;;;1548451;74;1038;-60
2023/04/10 01:21:30;;;;;;;;;;;20.80;44.70;;;;;;1554505;75;1490;-61
2023/04/10 01:23:43;;;;;;;;;;;20.70;44.80;;;;;;1553252;75;1157;-60
2023/04/10 01:25:49;;;;;;;;;;;20.70;44.90;;;;;;1558432;75;581;-61
2023/04/10 01:27:55;;;;;;;;;;;20.70;44.70;;;;;;1555193;74;1557;-63
2023/04/10 01:29:57;;;;;;;;;;;20.80;44.70;;;;;;1544947;75;1853;-60
2023/04/10 01:32:02;;;;;;;;;;;20.80;44.60;;;;;;1551629;74;704;-61
2023/04/10 01:34:05;;;;;;;;;;;20.80;44.60;;;;;;1560026;75;1133;-60
2023/04/10 01:36:08;;;;;;;;;;;20.70;44.60;;;;;;1549600;74;786;-61
2023/04/10 01:38:10;;;;;;;;;;;20.80;44.70;;;;;;1558791;74;1920;-60
2023/04/10 01:40:13;;;;;;;;;;;20.80;44.70;;;;;;1555671;75;701;-60
2023/04/10 01:42:16;;;;;;;;;;;20.70;44.70;;;;;;1556093;74;1589;-60
2023/04/10 01:44:18;;;;;;;;;;;20.70;44.70;;;;;;1552602;74;1161;-61
2023/04/10 01:46:20;;;;;;;;;;;20.80;44.80;;;;;;1554882;75;735;-61
2023/04/10 01:48:22;;;;;;;;;;;20.80;44.80;;;;;;1559631;74;750;-60
2023/04/10 01:50:24;;;;;;;;;;;20.70;44.90;;;;;;1546149;74;646;-60
2023/04/10 01:52:26;;;;;;;;;;;20.70;45.00;;;;;;1555418;74;663;-61
2023/04/10 01:54:27;;;;;;;;;;;20.70;45.00;;;;;;1546296;74;1172;-60
2023/04/10 01:56:29;;;;;;;;;;;20.70;45.00;;;;;;1537220;74;1932;-60
2023/04/10 01:58:31;;;;;;;;;;;20.70;44.90;;;;;;1552221;75;1003;-60
2023/04/10 02:00:42;;;;;;;;;;;20.70;44.90;;;;;;1551334;74;655;-60
2023/04/10 02:02:44;;;;;;;;;;;20.70;45.00;;;;;;1545410;74;786;-60
2023/04/10 02:04:50;;;;;;;;;;;20.70;45.00;;;;;;1557291;75;1192;-60
2023/04/10 02:06:57;;;;;;;;;;;20.70;44.90;;;;;;1559211;75;1722;-60
2023/04/10 02:09:01;;;;;;;;;;;20.70;45.10;;;;;;1550973;74;1350;-61
2023/04/10 02:11:12;;;;;;;;;;;20.70;45.00;;;;;;1536829;75;1697;-61
2023/04/10 02:13:15;;;;;;;;;;;20.80;45.00;;;;;;1556939;75;686;-61
2023/04/10 02:15:17;;;;;;;;;;;20.80;44.90;;;;;;1542574;75;706;-60
2023/04/10 02:17:20;;;;;;;;;;;20.70;44.90;;;;;;1544127;74;1944;-60
2023/04/10 02:19:23;;;;;;;;;;;20.80;44.80;;;;;;1547837;75;820;-61
2023/04/10 02:21:25;;;;;;;;;;;20.80;44.70;;;;;;1544015;75;688;-61
2023/04/10 02:23:27;;;;;;;;;;;20.80;44.70;;;;;;1553875;75;1603;-60
2023/04/10 02:25:32;;;;;;;;;;;20.70;44.70;;;;;;1523988;76;932;-60
2023/04/10 02:27:34;;;;;;;;;;;20.80;44.70;;;;;;1515949;76;980;-60
2023/04/10 02:29:36;;;;;;;;;;;20.80;44.60;;;;;;1534653;76;767;-61
2023/04/10 02:31:38;;;;;;;;;;;20.80;44.50;;;;;;1528307;76;745;-61
2023/04/10 02:33:40;;;;;;;;;;;20.80;44.50;;;;;;1566269;74;1192;-62
2023/04/10 02:35:42;;;;;;;;;;;20.80;44.50;;;;;;1565344;74;681;-60
2023/04/10 02:37:46;;;;;;;;;;;20.80;44.40;;;;;;1564162;75;1934;-61
2023/04/10 02:39:48;;;;;;;;;;;20.80;44.40;;;;;;1556892;75;702;-60
2023/04/10 02:41:49;;;;;;;;;;;20.70;44.40;;;;;;1565084;74;671;-60
2023/04/10 02:43:51;;;;;;;;;;;20.80;44.40;;;;;;1556879;74;1100;-61
2023/04/10 02:45:53;;;;;;;;;;;20.80;44.40;;;;;;1559502;74;648;-60
2023/04/10 02:47:55;;;;;;;;;;;20.80;44.40;;;;;;1556852;74;616;-61
2023/04/10 02:49:57;;;;;;;;;;;20.80;44.50;;;;;;1562813;74;745;-61
2023/04/10 02:51:59;;;;;;;;;;;20.80;44.40;;;;;;1559359;74;1528;-61
2023/04/10 02:54:01;;;;;;;;;;;20.80;44.50;;;;;;1557430;74;1160;-62
2023/04/10 02:56:05;;;;;;;;;;;20.80;44.50;;;;;;1566464;74;696;-61
2023/04/10 02:58:07;;;;;;;;;;;20.80;44.40;;;;;;1568417;74;1932;-62
2023/04/10 03:00:09;;;;;;;;;;;20.80;44.40;;;;;;1544570;74;698;-61
2023/04/10 03:02:11;;;;;;;;;;;20.70;44.40;;;;;;1521735;76;1244;-61
2023/04/10 03:04:13;;;;;;;;;;;20.80;44.40;;;;;;1556949;75;1200;-60
2023/04/10 03:06:15;;;;;;;;;;;20.80;44.40;;;;;;1549456;75;1514;-61
2023/04/10 03:08:17;;;;;;;;;;;20.80;44.50;;;;;;1537905;74;603;-61
2023/04/10 03:10:19;;;;;;;;;;;20.80;44.70;;;;;;1555087;75;840;-61
2023/04/10 03:12:21;;;;;;;;;;;20.70;44.70;;;;;;1552793;74;753;-61
2023/04/10 03:14:23;;;;;;;;;;;20.70;44.90;;;;;;1567452;74;1130;-60
2023/04/10 03:16:25;;;;;;;;;;;20.80;44.90;;;;;;1550518;75;565;-60
2023/04/10 03:18:27;;;;;;;;;;;20.80;44.80;;;;;;1545190;74;1914;-60
2023/04/10 03:20:28;;;;;;;;;;;20.80;44.70;;;;;;1543797;75;1507;-61
2023/04/10 03:22:31;;;;;;;;;;;20.70;44.60;;;;;;1552518;74;677;-61
2023/04/10 03:24:33;;;;;;;;;;;20.80;44.50;;;;;;1555448;74;1114;-60
2023/04/10 03:26:35;;;;;;;;;;;20.70;44.40;;;;;;1551344;75;773;-62
2023/04/10 03:28:38;;;;;;;;;;;20.90;44.50;;;;;;1551611;75;719;-62
2023/04/10 03:30:40;;;;;;;;;;;20.70;44.40;;;;;;1553708;75;675;-61
2023/04/10 03:32:42;;;;;;;;;;;20.80;44.40;;;;;;1553989;75;707;-61
2023/04/10 03:34:44;;;;;;;;;;;20.80;44.40;;;;;;1554351;75;1471;-61
2023/04/10 03:36:45;;;;;;;;;;;20.80;44.50;;;;;;1561551;74;771;-61
2023/04/10 03:38:47;;;;;;;;;;;20.80;44.50;;;;;;1554940;74;1927;-61
2023/04/10 03:40:49;;;;;;;;;;;20.70;44.60;;;;;;1560088;75;794;-60
2023/04/10 03:42:51;;;;;;;;;;;20.80;44.70;;;;;;1558674;74;728;-61
2023/04/10 03:44:53;;;;;;;;;;;20.80;44.60;;;;;;1546052;74;1077;-60
2023/04/10 03:46:55;;;;;;;;;;;20.70;44.50;;;;;;1545571;74;720;-61
2023/04/10 03:48:57;;;;;;;;;;;20.80;44.50;;;;;;1552494;74;1682;-61
2023/04/10 03:50:59;;;;;;;;;;;20.70;44.50;;;;;;1557744;75;678;-61
2023/04/10 03:53:01;;;;;;;;;;;20.70;44.50;;;;;;1550544;74;520;-61
2023/04/10 03:55:02;;;;;;;;;;;20.70;44.70;;;;;;1548077;75;1126;-60
2023/04/10 03:57:04;;;;;;;;;;;20.80;44.70;;;;;;1555958;74;738;-59
2023/04/10 03:59:06;;;;;;;;;;;20.70;44.70;;;;;;1558293;74;1100;-60
2023/04/10 04:01:08;;;;;;;;;;;20.80;44.70;;;;;;1550287;74;730;-60
2023/04/10 04:03:10;;;;;;;;;;;20.70;44.70;;;;;;1549021;74;1677;-60
2023/04/10 04:05:12;;;;;;;;;;;20.80;44.70;;;;;;1547495;74;1087;-60
2023/04/10 04:07:14;;;;;;;;;;;20.80;44.70;;;;;;1552779;75;637;-60
2023/04/10 04:09:16;;;;;;;;;;;20.70;44.70;;;;;;1542695;74;594;-61
2023/04/10 04:11:18;;;;;;;;;;;20.80;44.70;;;;;;1560673;75;750;-60
2023/04/10 04:13:19;;;;;;;;;;;20.80;44.70;;;;;;1556404;74;1139;-60
2023/04/10 04:15:22;;;;;;;;;;;20.80;44.70;;;;;;1553066;74;726;-60
2023/04/10 04:17:24;;;;;;;;;;;20.70;44.70;;;;;;1539560;75;1933;-60
2023/04/10 04:19:26;;;;;;;;;;;20.80;44.60;;;;;;1545457;74;749;-60
2023/04/10 04:21:28;;;;;;;;;;;20.80;44.70;;;;;;1567324;74;771;-60
2023/04/10 04:23:30;;;;;;;;;;;20.80;44.60;;;;;;1541186;75;1140;-59
2023/04/10 04:25:32;;;;;;;;;;;20.80;44.70;;;;;;1554077;76;741;-60
2023/04/10 04:27:33;;;;;;;;;;;20.70;44.70;;;;;;1553876;75;711;-60
2023/04/10 04:29:35;;;;;;;;;;;20.70;44.70;;;;;;1560677;75;1323;-60
2023/04/10 04:31:37;;;;;;;;;;;20.80;44.70;;;;;;1538711;74;766;-60
2023/04/10 04:33:39;;;;;;;;;;;20.80;44.70;;;;;;1552799;74;1102;-60
2023/04/10 04:35:41;;;;;;;;;;;20.80;44.80;;;;;;1549045;74;637;-60
2023/04/10 04:37:43;;;;;;;;;;;20.70;44.90;;;;;;1540814;74;1943;-60
2023/04/10 04:39:45;;;;;;;;;;;20.70;45.00;;;;;;1562436;74;717;-60
2023/04/10 04:41:46;;;;;;;;;;;20.70;45.00;;;;;;1554163;74;717;-60
2023/04/10 04:43:50;;;;;;;;;;;20.70;45.00;;;;;;1488995;78;1553;-61
2023/04/10 04:45:52;;;;;;;;;;;20.70;45.00;;;;;;1504113;77;701;-61
2023/04/10 04:47:53;;;;;;;;;;;20.80;45.00;;;;;;1493044;77;661;-60
2023/04/10 04:49:55;;;;;;;;;;;20.70;45.00;;;;;;1550618;74;708;-60
2023/04/10 04:51:57;;;;;;;;;;;20.80;45.00;;;;;;1548297;75;600;-60
2023/04/10 04:53:59;;;;;;;;;;;21.00;45.10;;;;;;1556710;75;1137;-60
2023/04/10 04:56:01;;;;;;;;;;;20.70;45.00;;;;;;1558294;74;680;-60
2023/04/10 04:58:03;;;;;;;;;;;20.80;44.90;;;;;;1557015;74;1902;-61
2023/04/10 05:00:06;;;;;;;;;;;20.80;44.90;;;;;;1551805;74;1068;-60
2023/04/10 05:02:08;;;;;;;;;;;20.70;44.80;;;;;;1544512;75;715;-61
2023/04/10 05:04:10;;;;;;;;;;;20.80;44.80;;;;;;1550031;74;1184;-60
2023/04/10 05:06:13;;;;;;;;;;;20.70;44.80;;;;;;1553122;74;747;-61
2023/04/10 05:08:15;;;;;;;;;;;20.80;44.90;;;;;;1555589;74;783;-61
2023/04/10 05:10:17;;;;;;;;;;;20.80;44.90;;;;;;1544252;74;743;-61
2023/04/10 05:12:19;;;;;;;;;;;20.70;45.00;;;;;;1543987;74;1561;-62
2023/04/10 05:14:21;;;;;;;;;;;20.70;44.90;;;;;;1555272;74;1152;-60
2023/04/10 05:16:22;;;;;;;;;;;20.70;45.00;;;;;;1559019;74;763;-60
2023/04/10 05:18:24;;;;;;;;;;;20.70;45.00;;;;;;1548881;75;1951;-63
2023/04/10 05:20:26;;;;;;;;;;;20.70;45.10;;;;;;1551178;75;746;-62
2023/04/10 05:22:28;;;;;;;;;;;20.70;45.00;;;;;;1551596;74;654;-62
2023/04/10 05:24:30;;;;;;;;;;;20.70;45.00;;;;;;1546210;74;1140;-62
2023/04/10 05:26:32;;;;;;;;;;;20.70;45.00;;;;;;1555024;75;1548;-62
2023/04/10 05:28:34;;;;;;;;;;;20.70;45.00;;;;;;1549453;74;632;-62
2023/04/10 05:30:36;;;;;;;;;;;20.80;45.00;;;;;;1551087;76;697;-62
2023/04/10 05:32:38;;;;;;;;;;;20.80;44.90;;;;;;1554604;74;740;-62
2023/04/10 05:34:40;;;;;;;;;;;20.70;44.90;;;;;;1553708;74;1129;-61
2023/04/10 05:36:42;;;;;;;;;;;20.80;44.90;;;;;;1562902;74;758;-61
2023/04/10 05:38:44;;;;;;;;;;;20.70;45.00;;;;;;1544562;75;2122;-62
2023/04/10 05:40:46;;;;;;;;;;;21.10;45.70;;;;;;1546043;75;1563;-62
2023/04/10 05:42:48;;;;;;;;;;;20.70;45.40;;;;;;1546348;74;752;-61
2023/04/10 05:44:51;;;;;;;;;;;20.70;45.30;;;;;;1559531;75;1243;-61
2023/04/10 05:46:53;;;;;;;;;;;20.70;45.70;;;;;;1551390;75;695;-61
2023/04/10 05:48:55;;;;;;;;;;;20.70;45.50;;;;;;1553063;75;748;-61
2023/04/10 05:50:57;;;;;;;;;;;20.70;45.60;;;;;;1550079;75;744;-62
2023/04/10 05:52:59;;;;;;;;;;;20.70;45.50;;;;;;1550746;74;612;-60
2023/04/10 05:55:00;;;;;;;;;;;20.80;45.40;;;;;;1543988;75;1365;-63
2023/04/10 05:57:02;;;;;;;;;;;20.80;45.30;;;;;;1557820;74;716;-62
2023/04/10 05:59:05;;;;;;;;;;;20.80;45.20;;;;;;1552432;74;1931;-62
2023/04/10 06:01:07;;;;;;;;;;;20.80;45.20;;;;;;1553386;74;1073;-63
2023/04/10 06:03:10;;;;;;;;;;;20.90;45.50;;;;;;1562285;74;743;-63
2023/04/10 06:05:12;;;;;;;;;;;20.90;45.40;;;;;;1544338;75;1187;-62
2023/04/10 06:07:13;;;;;;;;;;;20.90;45.50;;;;;;1494915;77;657;-63
2023/04/10 06:09:15;;;;;;;;;;;20.50;45.30;;;;;;1500931;77;1613;-62
2023/04/10 06:11:17;;;;;;;;;;;21.10;45.50;;;;;;1553493;75;718;-63
2023/04/10 06:13:19;;;;;;;;;;;20.90;45.50;;;;;;1549440;74;1172;-63
2023/04/10 06:15:21;;;;;;;;;;;20.90;45.70;;;;;;1558457;74;695;-63
2023/04/10 06:17:24;;;;;;;;;;;20.90;45.50;;;;;;1556824;74;750;-63
2023/04/10 06:19:26;;;;;;;;;;;20.80;45.00;;;;;;1549996;74;1912;-63
2023/04/10 06:21:28;;;;;;;;;;;20.90;44.90;;;;;;1556362;74;730;-63
2023/04/10 06:23:30;;;;;;;;;;;20.90;44.70;;;;;;1564494;74;1598;-63
2023/04/10 06:25:32;;;;;;;;;;;20.90;44.70;;;;;;1558877;74;783;-63
2023/04/10 06:27:38;;;;;;;;;;;20.90;44.50;;;;;;1560693;74;720;-63
2023/04/10 06:29:37;;;;;;;;;;;20.90;44.50;;;;;;1567161;76;1238;-63
2023/04/10 06:31:39;;;;;;;;;;;20.90;44.40;;;;;;1565618;75;765;-63
2023/04/10 06:33:41;;;;;;;;;;;20.80;44.30;;;;;;1532085;76;1142;-63
2023/04/10 06:35:43;;;;;;;;;;;20.90;44.40;;;;;;1526555;76;606;-64
2023/04/10 06:37:45;;;;;;;;;;;20.90;44.30;;;;;;1533108;77;1592;-63
2023/04/10 06:39:46;;;;;;;;;;;20.90;44.30;;;;;;1512493;77;1948;-63
2023/04/10 06:41:48;;;;;;;;;;;20.90;44.30;;;;;;1537990;77;646;-63
2023/04/10 06:43:50;;;;;;;;;;;20.80;44.10;;;;;;1518914;77;1103;-64
2023/04/10 06:45:52;;;;;;;;;;;20.80;44.10;;;;;;1538807;77;1040;-63
2023/04/10 06:47:54;;;;;;;;;;;20.90;44.30;;;;;;1524473;77;735;-63
2023/04/10 06:49:56;;;;;;;;;;;20.90;44.20;;;;;;1558018;74;738;-63
2023/04/10 06:51:58;;;;;;;;;;;20.80;44.10;;;;;;1566671;75;1697;-63
2023/04/10 06:54:00;;;;;;;;;;;20.80;44.10;;;;;;1552357;74;1151;-63
2023/04/10 06:56:02;;;;;;;;;;;20.80;44.10;;;;;;1551327;75;688;-63
2023/04/10 06:58:03;;;;;;;;;;;20.80;44.20;;;;;;1559472;74;732;-63
2023/04/10 07:00:06;;;;;;;;;;;20.80;44.10;;;;;;1558109;74;1923;-62
2023/04/10 07:02:08;;;;;;;;;;;20.80;44.10;;;;;;1549400;75;1059;-63
2023/04/10 07:04:10;;;;;;;;;;;20.80;44.10;;;;;;1557255;75;1201;-63
2023/04/10 07:06:12;;;;;;;;;;;20.70;44.20;;;;;;1556019;74;1876;-63
2023/04/10 07:08:14;;;;;;;;;;;20.80;44.20;;;;;;1547827;74;765;-63
2023/04/10 07:10:16;;;;;;;;;;;20.80;44.10;;;;;;1553859;75;747;-63
2023/04/10 07:12:17;;;;;;;;;;;20.70;44.20;;;;;;1550030;74;729;-63
2023/04/10 07:14:20;;;;;;;;;;;20.80;44.10;;;;;;1560354;75;1164;-63
2023/04/10 07:16:21;;;;;;;;;;;20.80;44.10;;;;;;1551340;75;759;-63
2023/04/10 07:18:24;;;;;;;;;;;20.80;44.10;;;;;;1551447;74;1939;-63
2023/04/10 07:20:27;;;;;;;;;;;20.80;44.20;;;;;;1552184;75;806;-63
2023/04/10 07:22:29;;;;;;;;;;;20.80;44.10;;;;;;1544018;75;584;-63
2023/04/10 07:24:31;;;;;;;;;;;20.80;44.20;;;;;;1558540;75;1117;-63
2023/04/10 07:26:33;;;;;;;;;;;20.80;44.20;;;;;;1554874;74;599;-63
2023/04/10 07:28:35;;;;;;;;;;;20.80;44.20;;;;;;1554677;75;679;-63
2023/04/10 07:30:37;;;;;;;;;;;20.80;44.20;;;;;;1550827;75;797;-63
2023/04/10 07:32:40;;;;;;;;;;;20.80;44.20;;;;;;1558562;75;1556;-63
2023/04/10 07:34:43;;;;;;;;;;;20.80;44.30;;;;;;1553895;74;1156;-63
2023/04/10 07:36:46;;;;;;;;;;;20.80;44.40;;;;;;1555834;74;794;-63
2023/04/10 07:38:47;;;;;;;;;;;20.80;44.40;;;;;;1558106;74;1907;-63
2023/04/10 07:40:50;;;;;;;;;;;20.70;44.40;;;;;;1550167;74;748;-63
2023/04/10 07:42:51;;;;;;;;;;;20.80;44.40;;;;;;1531598;76;1072;-63
2023/04/10 07:44:53;;;;;;;;;;;20.70;44.40;;;;;;1558057;75;1144;-63
2023/04/10 07:46:55;;;;;;;;;;;20.70;44.50;;;;;;1556912;75;1589;-63
2023/04/10 07:48:57;;;;;;;;;;;20.70;44.50;;;;;;1556471;74;772;-63
2023/04/10 07:50:59;;;;;;;;;;;20.70;44.50;;;;;;1552824;75;770;-63
2023/04/10 07:53:06;;;;;;;;;;;20.70;44.50;;;;;;1546765;75;697;-63
2023/04/10 07:55:05;;;;;;;;;;;20.80;44.60;;;;;;1543883;74;1107;-63
2023/04/10 07:57:07;;;;;;;;;;;20.70;44.50;;;;;;1555817;75;676;-63
2023/04/10 07:59:08;;;;;;;;;;;20.70;44.60;;;;;;1552681;74;1927;-63
2023/04/10 08:01:10;;;;;;;;;;;20.70;44.60;;;;;;1549256;75;1554;-64
2023/04/10 08:03:12;;;;;;;;;;;20.70;44.70;;;;;;1535143;75;689;-63
2023/04/10 08:05:14;;;;;;;;;;;20.70;44.70;;;;;;1547526;75;1192;-62
2023/04/10 08:07:17;;;;;;;;;;;20.70;44.70;;;;;;1546221;75;647;-63
2023/04/10 08:09:20;;;;;;;;;;;20.80;44.70;;;;;;1540886;75;812;-63
2023/04/10 08:11:32;;;;;;;;;;;20.70;44.70;;;;;;1541806;75;730;-63
2023/04/10 08:13:34;;;;;;;;;;;20.70;44.80;;;;;;1538255;75;1128;-63
2023/04/10 08:15:35;;;;;;;;;;;20.70;44.90;;;;;;1543098;75;1607;-63
2023/04/10 08:17:37;;;;;;;;;;;20.70;45.00;;;;;;1546935;75;784;-63
2023/04/10 08:19:41;;;;;;;;;;;20.70;45.00;;;;;;1550678;75;1936;-64
2023/04/10 08:21:43;;;;;;;;;;;20.70;45.10;;;;;;1540697;75;1529;-63
2023/04/10 08:23:47;;;;;;;;;;;20.70;45.10;;;;;;1547744;75;1178;-63
2023/04/10 08:25:49;;;;;;;;;;;20.70;45.20;;;;;;1550795;75;585;-63
2023/04/10 08:27:51;;;;;;;;;;;20.70;45.20;;;;;;1547813;75;736;-63
2023/04/10 08:29:53;;;;;;;;;;;20.70;45.40;;;;;;1536052;75;1566;-63
2023/04/10 08:31:57;;;;;;;;;;;20.70;45.50;;;;;;1538759;75;792;-65
2023/04/10 08:33:58;;;;;;;;;;;20.60;45.30;;;;;;1533060;75;1670;-65
2023/04/10 08:36:00;;;;;;;;;;;20.60;45.70;;;;;;1554893;75;756;-65
2023/04/10 08:38:02;;;;;;;;;;;20.70;45.80;;;;;;1550121;75;765;-63
2023/04/10 08:40:04;;;;;;;;;;;20.70;46.00;;;;;;1551888;75;1913;-65
2023/04/10 08:42:06;;;;;;;;;;;20.70;46.10;;;;;;1545574;75;633;-65
2023/04/10 08:44:08;;;;;;;;;;;20.70;46.50;;;;;;1543272;75;1570;-65
2023/04/10 08:46:10;;;;;;;;;;;20.60;46.40;;;;;;1539929;75;771;-65
2023/04/10 08:48:12;;;;;;;;;;;20.60;46.70;;;;;;1548888;75;742;-65
2023/04/10 08:50:15;;;;;;;;;;;20.70;47.00;;;;;;1539181;75;707;-65
2023/04/10 08:52:26;;;;;;;;;;;20.70;47.10;;;;;;1539723;75;703;-65
2023/04/10 08:54:28;;;;;;;;;;;20.70;46.90;;;;;;1539208;75;1149;-65
2023/04/10 08:56:30;;;;;;;;;;;20.70;46.90;;;;;;1543602;75;681;-65
2023/04/10 08:58:32;;;;;;;;;;;20.80;46.90;;;;;;1546156;75;1692;-65
2023/04/10 09:00:34;;;;;;;;;;;20.70;46.90;;;;;;1546963;75;1960;-66
2023/04/10 09:02:38;;;;;;;;;;;20.70;47.00;;;;;;1553785;75;1123;-65
2023/04/10 09:04:41;;;;;;;;;;;20.70;46.90;;;;;;1560665;75;1216;-65
2023/04/10 09:06:43;;;;;;;;;;;20.70;46.90;;;;;;1511669;76;808;-65
2023/04/10 09:08:45;;;;;;;;;;;20.70;47.00;;;;;;1560619;74;752;-65
2023/04/10 09:10:47;;;;;;;;;;;20.70;47.00;;;;;;1554646;74;739;-65
2023/04/10 09:12:49;;;;;;;;;;;20.70;47.10;;;;;;1563060;74;709;-64
2023/04/10 09:14:52;;;;;;;;;;;20.70;47.20;;;;;;1554729;74;1077;-65
2023/04/10 09:16:54;;;;;;;;;;;20.70;48.00;;;;;;1548653;74;767;-64
2023/04/10 09:18:56;;;;;;;;;;;20.70;49.00;;;;;;1552897;75;788;-64
2023/04/10 09:20:59;;;;;;;;;;;20.70;49.50;;;;;;1559457;75;1915;-64
2023/04/10 09:23:01;;;;;;;;;;;20.70;49.90;;;;;;1557412;75;999;-64
2023/04/10 09:25:03;;;;;;;;;;;20.70;49.90;;;;;;1557724;75;1338;-64
2023/04/10 09:27:06;;;;;;;;;;;20.70;50.30;;;;;;1550666;75;778;-64
2023/04/10 09:29:09;;;;;;;;;;;20.70;51.20;;;;;;1551940;74;732;-65
2023/04/10 09:31:18;;;;;;;;;;;20.80;51.40;;;;;;1552491;75;822;-65
2023/04/10 09:33:23;;;;;;;;;;;20.80;52.40;;;;;;1542365;75;1492;-65
2023/04/10 09:35:27;;;;;;;;;;;20.90;52.60;;;;;;1554077;74;749;-64
2023/04/10 09:37:32;;;;;;;;;;;20.80;52.10;;;;;;1557044;75;1032;-63
2023/04/10 09:39:42;;;;;;;;;;;20.80;52.40;;;;;;1557099;74;1926;-64
2023/04/10 09:41:50;;;;;;;;;;;20.80;52.10;;;;;;1545313;74;593;-67
2023/04/10 09:43:56;;;;;;;;;;;20.80;52.40;;;;;;1549120;75;1165;-66
2023/04/10 09:45:58;;;;;;;;;;;20.90;52.60;;;;;;1545556;74;1047;-66
2023/04/10 09:48:02;;;;;;;;;;;20.80;52.20;;;;;;1560050;75;779;-66
2023/04/10 09:50:04;;;;;;;;;;;20.90;52.30;;;;;;1545726;75;1902;-66
2023/04/10 09:52:07;;;;;;;;;;;20.90;51.80;;;;;;1546221;75;709;-67
2023/04/10 09:54:09;;;;;;;;;;;20.90;51.70;;;;;;1554772;74;1868;-65
2023/04/10 09:56:11;;;;;;;;;;;20.90;51.50;;;;;;1546188;74;614;-66
2023/04/10 09:58:13;;;;;;;;;;;21.00;51.60;;;;;;1552055;75;734;-66
2023/04/10 10:00:15;;;;;;;;;;;21.00;51.50;;;;;;1548626;75;1944;-67
2023/04/10 10:02:18;;;;;;;;;;;21.00;51.30;;;;;;1558689;76;1138;-67
2023/04/10 10:04:20;;;;;;;;;;;20.90;51.30;;;;;;1538870;75;1176;-66
2023/04/10 10:06:22;;;;;;;;;;;20.90;51.20;;;;;;1550440;75;756;-66
2023/04/10 10:08:24;;;;;;;;;;;21.00;51.20;;;;;;1549574;75;1538;-66
2023/04/10 10:10:26;;;;;;;;;;;21.00;51.10;;;;;;1537027;75;699;-66
2023/04/10 10:12:32;;;;;;;;;;;21.00;51.20;;;;;;1537484;75;767;-66
2023/04/10 10:14:35;;;;;;;;;;;21.00;51.00;;;;;;1543129;75;2041;-66
2023/04/10 10:16:39;;;;;;;;;;;21.00;51.10;;;;;;1543011;75;742;-66
2023/04/10 10:18:44;;;;;;;;;;;21.00;51.10;;;;;;1545473;75;648;-66
2023/04/10 10:20:46;;;;;;;;;;;21.00;51.00;;;;;;1548518;76;1913;-66
2023/04/10 10:22:48;;;;;;;;;;;21.00;50.70;;;;;;1547202;75;1521;-66
2023/04/10 10:24:55;;;;;;;;;;;21.00;50.80;;;;;;1535682;75;1147;-65
2023/04/10 10:27:00;;;;;;;;;;;21.00;50.80;;;;;;1538872;75;1378;-67
2023/04/10 10:28:58;;;;;;;;;;;21.00;51.80;;;;;;1562632;75;1545;-67
2023/04/10 10:31:00;;;;;;;;;;;21.00;51.80;;;;;;1543266;75;692;-66
2023/04/10 10:33:03;;;;;;;;;;;21.00;51.70;;;;;;1541180;75;776;-66
2023/04/10 10:35:06;;;;;;;;;;;21.00;51.70;;;;;;1509333;76;1127;-66
2023/04/10 10:37:08;;;;;;;;;;;21.10;51.50;;;;;;1540283;75;1887;-66
2023/04/10 10:39:12;;;;;;;;;;;21.20;51.00;;;;;;1541942;75;788;-66
2023/04/10 10:41:15;;;;;;;;;;;21.20;50.70;;;;;;1547337;75;1932;-66
2023/04/10 10:43:37;;;;;;;;;;;21.30;50.50;;;;;;1543895;75;1779;-66
2023/04/10 10:45:40;;;;;;;;;;;21.40;50.20;;;;;;1538070;75;1638;-66
2023/04/10 10:47:45;;;;;;;;;;;21.30;50.00;;;;;;1543243;75;794;-64
2023/04/10 10:49:53;;;;;;;;;;;21.30;49.70;;;;;;1540491;75;1640;-65
2023/04/10 10:51:55;;;;;;;;;;;21.40;49.30;;;;;;1528369;75;1256;-65
2023/04/10 10:53:57;;;;;;;;;;;21.40;48.80;;;;;;1543472;75;1133;-66
2023/04/10 10:55:59;;;;;;;;;;;21.50;48.50;;;;;;1551478;75;727;-66
2023/04/10 10:58:01;;;;;;;;;;;21.50;48.10;;;;;;1549364;75;795;-65
2023/04/10 11:00:03;;;;;;;;;;;21.50;47.90;;;;;;1548076;75;1954;-66
2023/04/10 11:02:16;;;;;;;;;;;21.50;47.70;;;;;;1547722;75;704;-66
2023/04/10 11:04:37;;;;;;;;;;;21.50;47.60;;;;;;1553764;74;1566;-65
2023/04/10 11:06:48;;;;;;;;;;;21.50;47.40;;;;;;1564813;74;872;-66
2023/04/10 11:08:54;;;;;;;;;;;21.50;47.30;;;;;;1530364;76;774;-65
2023/04/10 11:11:05;;;;;;;;;;;21.50;47.20;;;;;;1501897;77;908;-66
2023/04/10 11:13:17;;;;;;;;;;;21.50;47.20;;;;;;1510783;77;729;-66
2023/04/10 11:15:20;;;;;;;;;;;21.50;47.10;;;;;;1532996;76;718;-65
2023/04/10 11:17:40;;;;;;;;;;;21.50;47.10;;;;;;1533351;76;1844;-66
2023/04/10 11:20:01;;;;;;;;;;;21.50;46.90;;;;;;1511620;78;1906;-66
2023/04/10 11:22:04;;;;;;;;;;;21.50;46.90;;;;;;1512138;77;750;-66
2023/04/10 11:24:06;;;;;;;;;;;21.40;46.80;;;;;;1505728;78;1092;-65
2023/04/10 11:26:09;;;;;;;;;;;21.40;46.80;;;;;;1510550;78;794;-67
2023/04/10 11:28:13;;;;;;;;;;;21.50;46.80;;;;;;1505694;78;658;-66
2023/04/10 11:30:33;;;;;;;;;;;21.40;46.70;;;;;;1507072;77;1743;-66
2023/04/10 11:32:41;;;;;;;;;;;21.40;46.60;;;;;;1506035;77;1511;-65
2023/04/10 11:34:46;;;;;;;;;;;21.40;46.60;;;;;;1517144;78;1139;-66
2023/04/10 11:36:48;;;;;;;;;;;21.40;46.50;;;;;;1518709;78;817;-65
2023/04/10 11:38:59;;;;;;;;;;;21.50;46.70;;;;;;1495016;78;779;-66
2023/04/10 11:41:03;;;;;;;;;;;21.50;46.60;;;;;;1510540;78;1903;-65
2023/04/10 11:43:14;;;;;;;;;;;21.40;46.50;;;;;;1511060;78;754;-66
2023/04/10 11:45:23;;;;;;;;;;;21.40;46.50;;;;;;1512330;78;1161;-66
2023/04/10 11:47:25;;;;;;;;;;;21.40;46.40;;;;;;1501074;78;1698;-66
2023/04/10 11:49:29;;;;;;;;;;;21.40;46.50;;;;;;1511779;78;974;-65
2023/04/10 11:51:31;;;;;;;;;;;21.30;46.40;;;;;;1501612;77;707;-66
2023/04/10 11:53:32;;;;;;;;;;;21.30;46.40;;;;;;1503584;78;1143;-66
2023/04/10 11:55:38;;;;;;;;;;;21.30;46.40;;;;;;1509119;78;810;-66
2023/04/10 11:57:40;;;;;;;;;;;21.30;46.30;;;;;;1508674;78;677;-66
2023/04/10 11:59:41;;;;;;;;;;;21.30;46.40;;;;;;1500376;78;1588;-65
2023/04/10 12:01:43;;;;;;;;;;;21.30;46.40;;;;;;1478895;78;1961;-65
2023/04/10 12:03:45;;;;;;;;;;;21.30;46.40;;;;;;1507501;77;1190;-66
2023/04/10 12:05:47;;;;;;;;;;;21.40;46.30;;;;;;1512689;77;762;-66
2023/04/10 12:07:49;;;;;;;;;;;21.30;46.40;;;;;;1504660;77;641;-66
2023/04/10 12:09:57;;;;;;;;;;;21.30;46.30;;;;;;1507714;77;705;-66
2023/04/10 12:12:00;;;;;;;;;;;21.20;46.10;;;;;;1511741;77;721;-65